sensor_id;sensor_type;location;lat;lon;timestamp;temperature;humidity
5617;DHT22;2830;50.656;7.568;2023-06-10T00:00:29;15.10;99.90
5617;DHT22;2830;50.656;7.568;2023-06-10T00:02:58;15.10;99.90
5617;DHT22;2830;50.656;7.568;2023-06-10T00:05:26;15.10;99.90
5617;DHT22;2830;50.656;7.568;2023-06-10T00:07:56;15.10;99.90
5617;DHT22;2830;50.656;7.568;2023-06-10T00:10:24;15.10;99.90
5617;DHT22;2830;50.656;7.568;2023-06-10T00:12:51;15.10;99.90
5617;DHT22;2830;50.656;7.568;2023-06-10T00:15:18;15.00;99.90
5617;DHT22;2830;50.656;7.568;2023-06-10T00:17:45;14.90;99.90
5617;DHT22;2830;50.656;7.568;2023-06-10T00:20:12;14.90;99.90
5617;DHT22;2830;50.656;7.568;2023-06-10T00:22:39;14.70;99.90
5617;DHT22;2830;50.656;7.568;2023-06-10T00:25:09;14.70;99.90
5617;DHT22;2830;50.656;7.568;2023-06-10T00:27:37;14.70;99.90
5617;DHT22;2830;50.656;7.568;2023-06-10T00:30:04;14.70;99.90
5617;DHT22;2830;50.656;7.568;2023-06-10T00:32:36;14.70;99.90
5617;DHT22;2830;50.656;7.568;2023-06-10T00:35:04;14.70;99.90
5617;DHT22;2830;50.656;7.568;2023-06-10T00:37:31;14.70;99.90
5617;DHT22;2830;50.656;7.568;2023-06-10T00:39:58;14.70;99.90
5617;DHT22;2830;50.656;7.568;2023-06-10T00:42:25;14.60;99.90
5617;DHT22;2830;50.656;7.568;2023-06-10T00:44:53;14.50;99.90
5617;DHT22;2830;50.656;7.568;2023-06-10T00:47:20;14.50;99.90
5617;DHT22;2830;50.656;7.568;2023-06-10T00:49:47;14.40;99.90
5617;DHT22;2830;50.656;7.568;2023-06-10T00:52:16;14.40;99.90
5617;DHT22;2830;50.656;7.568;2023-06-10T00:54:44;14.40;99.90
5617;DHT22;2830;50.656;7.568;2023-06-10T00:57:12;14.40;99.90
5617;DHT22;2830;50.656;7.568;2023-06-10T00:59:41;14.30;99.90
5617;DHT22;2830;50.656;7.568;2023-06-10T01:02:09;14.30;99.90
5617;DHT22;2830;50.656;7.568;2023-06-10T01:04:36;14.30;99.90
5617;DHT22;2830;50.656;7.568;2023-06-10T01:07:32;14.30;99.90
5617;DHT22;2830;50.656;7.568;2023-06-10T01:10:09;14.10;99.90
5617;DHT22;2830;50.656;7.568;2023-06-10T01:12:49;14.10;99.90
5617;DHT22;2830;50.656;7.568;2023-06-10T01:15:19;14.00;99.90
5617;DHT22;2830;50.656;7.568;2023-06-10T01:18:00;14.00;99.90
5617;DHT22;2830;50.656;7.568;2023-06-10T01:20:30;13.90;99.90
5617;DHT22;2830;50.656;7.568;2023-06-10T01:22:59;13.90;99.90
5617;DHT22;2830;50.656;7.568;2023-06-10T01:25:27;13.90;99.90
5617;DHT22;2830;50.656;7.568;2023-06-10T01:28:21;13.90;99.90
5617;DHT22;2830;50.656;7.568;2023-06-10T01:33:32;13.80;99.90
5617;DHT22;2830;50.656;7.568;2023-06-10T01:36:01;13.70;99.90
5617;DHT22;2830;50.656;7.568;2023-06-10T01:38:32;13.70;99.90
5617;DHT22;2830;50.656;7.568;2023-06-10T01:41:00;13.70;99.90
5617;DHT22;2830;50.656;7.568;2023-06-10T01:43:27;13.70;99.90
5617;DHT22;2830;50.656;7.568;2023-06-10T01:45:54;13.60;99.90
5617;DHT22;2830;50.656;7.568;2023-06-10T01:48:20;13.60;99.90
5617;DHT22;2830;50.656;7.568;2023-06-10T01:50:47;13.60;99.90
5617;DHT22;2830;50.656;7.568;2023-06-10T01:53:14;13.60;99.90
5617;DHT22;2830;50.656;7.568;2023-06-10T01:55:40;13.50;99.90
5617;DHT22;2830;50.656;7.568;2023-06-10T01:58:07;13.50;99.90
5617;DHT22;2830;50.656;7.568;2023-06-10T02:00:34;13.50;99.90
5617;DHT22;2830;50.656;7.568;2023-06-10T02:03:01;13.50;99.90
5617;DHT22;2830;50.656;7.568;2023-06-10T02:05:27;13.50;99.90
5617;DHT22;2830;50.656;7.568;2023-06-10T02:07:54;13.60;99.90
5617;DHT22;2830;50.656;7.568;2023-06-10T02:10:21;13.50;99.90
5617;DHT22;2830;50.656;7.568;2023-06-10T02:12:47;13.40;99.90
5617;DHT22;2830;50.656;7.568;2023-06-10T02:15:14;13.40;99.90
5617;DHT22;2830;50.656;7.568;2023-06-10T02:17:41;13.30;99.90
5617;DHT22;2830;50.656;7.568;2023-06-10T02:20:08;13.30;99.90
5617;DHT22;2830;50.656;7.568;2023-06-10T02:22:37;13.30;99.90
5617;DHT22;2830;50.656;7.568;2023-06-10T02:25:05;13.20;99.90
5617;DHT22;2830;50.656;7.568;2023-06-10T02:27:32;13.20;99.90
5617;DHT22;2830;50.656;7.568;2023-06-10T02:29:59;13.20;99.90
5617;DHT22;2830;50.656;7.568;2023-06-10T02:32:26;13.20;99.90
5617;DHT22;2830;50.656;7.568;2023-06-10T02:34:53;13.10;99.90
5617;DHT22;2830;50.656;7.568;2023-06-10T02:37:20;13.10;99.90
5617;DHT22;2830;50.656;7.568;2023-06-10T02:39:47;13.10;99.90
5617;DHT22;2830;50.656;7.568;2023-06-10T02:42:14;12.90;99.90
5617;DHT22;2830;50.656;7.568;2023-06-10T02:44:40;12.90;99.90
5617;DHT22;2830;50.656;7.568;2023-06-10T02:47:07;12.90;99.90
5617;DHT22;2830;50.656;7.568;2023-06-10T02:49:34;12.90;99.90
5617;DHT22;2830;50.656;7.568;2023-06-10T02:52:01;12.90;99.90
5617;DHT22;2830;50.656;7.568;2023-06-10T02:54:27;12.90;99.90
5617;DHT22;2830;50.656;7.568;2023-06-10T02:56:54;12.80;99.90
5617;DHT22;2830;50.656;7.568;2023-06-10T02:59:22;12.80;99.90
5617;DHT22;2830;50.656;7.568;2023-06-10T03:01:49;12.90;99.90
5617;DHT22;2830;50.656;7.568;2023-06-10T03:04:16;12.90;99.90
5617;DHT22;2830;50.656;7.568;2023-06-10T03:06:42;12.80;99.90
5617;DHT22;2830;50.656;7.568;2023-06-10T03:09:09;12.80;99.90
5617;DHT22;2830;50.656;7.568;2023-06-10T03:11:36;12.70;99.90
5617;DHT22;2830;50.656;7.568;2023-06-10T03:14:03;12.70;99.90
5617;DHT22;2830;50.656;7.568;2023-06-10T03:16:30;12.70;99.90
5617;DHT22;2830;50.656;7.568;2023-06-10T03:18:59;12.70;99.90
5617;DHT22;2830;50.656;7.568;2023-06-10T03:21:25;12.70;99.90
5617;DHT22;2830;50.656;7.568;2023-06-10T03:23:53;12.70;99.90
5617;DHT22;2830;50.656;7.568;2023-06-10T03:26:20;12.70;99.90
5617;DHT22;2830;50.656;7.568;2023-06-10T03:28:48;12.60;99.90
5617;DHT22;2830;50.656;7.568;2023-06-10T03:31:15;12.60;99.90
5617;DHT22;2830;50.656;7.568;2023-06-10T03:33:43;12.60;99.90
5617;DHT22;2830;50.656;7.568;2023-06-10T03:36:10;12.50;99.90
5617;DHT22;2830;50.656;7.568;2023-06-10T03:38:40;12.50;99.90
5617;DHT22;2830;50.656;7.568;2023-06-10T03:41:07;12.50;99.90
5617;DHT22;2830;50.656;7.568;2023-06-10T03:43:34;12.50;99.90
5617;DHT22;2830;50.656;7.568;2023-06-10T03:46:00;12.50;99.90
5617;DHT22;2830;50.656;7.568;2023-06-10T03:48:27;12.50;99.90
5617;DHT22;2830;50.656;7.568;2023-06-10T03:50:54;12.40;99.90
5617;DHT22;2830;50.656;7.568;2023-06-10T03:53:21;12.50;99.90
5617;DHT22;2830;50.656;7.568;2023-06-10T03:55:48;12.50;99.90
5617;DHT22;2830;50.656;7.568;2023-06-10T03:58:15;12.50;99.90
5617;DHT22;2830;50.656;7.568;2023-06-10T04:00:42;12.50;99.90
5617;DHT22;2830;50.656;7.568;2023-06-10T04:03:09;12.60;99.90
5617;DHT22;2830;50.656;7.568;2023-06-10T04:05:41;12.60;99.90
5617;DHT22;2830;50.656;7.568;2023-06-10T04:08:08;12.70;99.90
5617;DHT22;2830;50.656;7.568;2023-06-10T04:10:35;12.70;99.90
5617;DHT22;2830;50.656;7.568;2023-06-10T04:13:02;12.60;99.90
5617;DHT22;2830;50.656;7.568;2023-06-10T04:15:30;12.60;99.90
5617;DHT22;2830;50.656;7.568;2023-06-10T04:17:59;12.70;99.90
5617;DHT22;2830;50.656;7.568;2023-06-10T04:20:27;12.80;99.90
5617;DHT22;2830;50.656;7.568;2023-06-10T04:22:54;12.80;99.90
5617;DHT22;2830;50.656;7.568;2023-06-10T04:25:21;12.90;99.90
5617;DHT22;2830;50.656;7.568;2023-06-10T04:27:48;13.00;99.90
5617;DHT22;2830;50.656;7.568;2023-06-10T04:30:15;13.00;99.90
5617;DHT22;2830;50.656;7.568;2023-06-10T04:32:42;13.10;99.90
5617;DHT22;2830;50.656;7.568;2023-06-10T04:35:11;13.10;99.90
5617;DHT22;2830;50.656;7.568;2023-06-10T04:37:39;13.20;99.90
5617;DHT22;2830;50.656;7.568;2023-06-10T04:40:07;13.30;99.90
5617;DHT22;2830;50.656;7.568;2023-06-10T04:42:34;13.40;99.90
5617;DHT22;2830;50.656;7.568;2023-06-10T04:45:01;13.40;99.90
5617;DHT22;2830;50.656;7.568;2023-06-10T04:47:29;13.50;99.90
5617;DHT22;2830;50.656;7.568;2023-06-10T04:49:55;13.50;99.90
5617;DHT22;2830;50.656;7.568;2023-06-10T04:52:22;13.70;99.90
5617;DHT22;2830;50.656;7.568;2023-06-10T04:54:49;13.80;99.90
5617;DHT22;2830;50.656;7.568;2023-06-10T04:57:15;13.90;99.90
5617;DHT22;2830;50.656;7.568;2023-06-10T04:59:42;14.00;99.90
5617;DHT22;2830;50.656;7.568;2023-06-10T05:02:09;14.10;99.90
5617;DHT22;2830;50.656;7.568;2023-06-10T05:04:36;14.10;99.90
5617;DHT22;2830;50.656;7.568;2023-06-10T05:07:03;14.20;99.90
5617;DHT22;2830;50.656;7.568;2023-06-10T05:09:30;14.30;99.90
5617;DHT22;2830;50.656;7.568;2023-06-10T05:11:57;14.40;99.90
5617;DHT22;2830;50.656;7.568;2023-06-10T05:14:24;14.60;99.90
5617;DHT22;2830;50.656;7.568;2023-06-10T05:16:51;14.90;99.90
5617;DHT22;2830;50.656;7.568;2023-06-10T05:19:17;15.30;99.90
5617;DHT22;2830;50.656;7.568;2023-06-10T05:21:45;15.70;99.90
5617;DHT22;2830;50.656;7.568;2023-06-10T05:24:12;16.40;99.90
5617;DHT22;2830;50.656;7.568;2023-06-10T05:26:38;16.50;99.90
5617;DHT22;2830;50.656;7.568;2023-06-10T05:29:05;16.70;99.90
5617;DHT22;2830;50.656;7.568;2023-06-10T05:31:32;17.30;99.90
5617;DHT22;2830;50.656;7.568;2023-06-10T05:33:59;17.70;99.90
5617;DHT22;2830;50.656;7.568;2023-06-10T05:36:26;18.30;98.70
5617;DHT22;2830;50.656;7.568;2023-06-10T05:38:53;18.40;98.80
5617;DHT22;2830;50.656;7.568;2023-06-10T05:41:20;19.00;97.80
5617;DHT22;2830;50.656;7.568;2023-06-10T05:43:48;19.50;96.60
5617;DHT22;2830;50.656;7.568;2023-06-10T05:46:15;19.60;96.20
5617;DHT22;2830;50.656;7.568;2023-06-10T05:48:42;20.10;95.60
5617;DHT22;2830;50.656;7.568;2023-06-10T05:51:09;20.20;94.70
5617;DHT22;2830;50.656;7.568;2023-06-10T05:53:36;20.30;95.50
5617;DHT22;2830;50.656;7.568;2023-06-10T05:56:04;20.80;93.80
5617;DHT22;2830;50.656;7.568;2023-06-10T05:58:31;21.10;93.70
5617;DHT22;2830;50.656;7.568;2023-06-10T06:00:58;21.50;92.90
5617;DHT22;2830;50.656;7.568;2023-06-10T06:03:25;22.10;92.10
5617;DHT22;2830;50.656;7.568;2023-06-10T06:05:52;22.20;91.60
5617;DHT22;2830;50.656;7.568;2023-06-10T06:08:18;22.10;91.60
5617;DHT22;2830;50.656;7.568;2023-06-10T06:10:45;22.00;91.90
5617;DHT22;2830;50.656;7.568;2023-06-10T06:13:12;22.10;91.60
5617;DHT22;2830;50.656;7.568;2023-06-10T06:15:39;22.50;91.30
5617;DHT22;2830;50.656;7.568;2023-06-10T06:18:05;22.50;90.70
5617;DHT22;2830;50.656;7.568;2023-06-10T06:20:32;22.90;90.00
5617;DHT22;2830;50.656;7.568;2023-06-10T06:22:59;22.90;90.40
5617;DHT22;2830;50.656;7.568;2023-06-10T06:25:26;23.20;90.10
5617;DHT22;2830;50.656;7.568;2023-06-10T06:27:52;23.60;90.60
5617;DHT22;2830;50.656;7.568;2023-06-10T06:30:19;23.70;87.80
5617;DHT22;2830;50.656;7.568;2023-06-10T06:32:46;23.30;88.60
5617;DHT22;2830;50.656;7.568;2023-06-10T06:35:13;23.50;88.80
5617;DHT22;2830;50.656;7.568;2023-06-10T06:37:39;23.70;87.70
5617;DHT22;2830;50.656;7.568;2023-06-10T06:40:07;23.70;89.50
5617;DHT22;2830;50.656;7.568;2023-06-10T06:42:34;23.90;88.60
5617;DHT22;2830;50.656;7.568;2023-06-10T06:45:01;24.00;87.60
5617;DHT22;2830;50.656;7.568;2023-06-10T06:47:27;24.40;88.10
5617;DHT22;2830;50.656;7.568;2023-06-10T06:49:54;24.60;86.80
5617;DHT22;2830;50.656;7.568;2023-06-10T06:52:21;25.00;84.60
5617;DHT22;2830;50.656;7.568;2023-06-10T06:54:48;25.50;85.60
5617;DHT22;2830;50.656;7.568;2023-06-10T06:57:15;25.60;82.70
5617;DHT22;2830;50.656;7.568;2023-06-10T06:59:42;26.40;83.20
5617;DHT22;2830;50.656;7.568;2023-06-10T07:02:10;26.70;78.20
5617;DHT22;2830;50.656;7.568;2023-06-10T07:04:36;26.70;76.70
5617;DHT22;2830;50.656;7.568;2023-06-10T07:07:06;26.90;76.50
5617;DHT22;2830;50.656;7.568;2023-06-10T07:09:33;27.20;76.70
5617;DHT22;2830;50.656;7.568;2023-06-10T07:12:00;27.40;75.70
5617;DHT22;2830;50.656;7.568;2023-06-10T07:14:27;27.40;76.50
5617;DHT22;2830;50.656;7.568;2023-06-10T07:16:53;27.70;74.20
5617;DHT22;2830;50.656;7.568;2023-06-10T07:19:20;27.80;71.80
5617;DHT22;2830;50.656;7.568;2023-06-10T07:21:47;27.90;73.20
5617;DHT22;2830;50.656;7.568;2023-06-10T07:24:14;28.00;72.10
5617;DHT22;2830;50.656;7.568;2023-06-10T07:26:41;28.80;70.30
5617;DHT22;2830;50.656;7.568;2023-06-10T07:29:13;29.40;66.70
5617;DHT22;2830;50.656;7.568;2023-06-10T07:31:41;29.90;63.70
5617;DHT22;2830;50.656;7.568;2023-06-10T07:34:08;30.10;64.50
5617;DHT22;2830;50.656;7.568;2023-06-10T07:36:35;30.30;62.00
5617;DHT22;2830;50.656;7.568;2023-06-10T07:39:02;30.40;59.30
5617;DHT22;2830;50.656;7.568;2023-06-10T07:41:29;30.40;57.90
5617;DHT22;2830;50.656;7.568;2023-06-10T07:43:56;31.00;57.50
5617;DHT22;2830;50.656;7.568;2023-06-10T07:46:23;31.20;56.20
5617;DHT22;2830;50.656;7.568;2023-06-10T07:48:51;31.10;55.20
5617;DHT22;2830;50.656;7.568;2023-06-10T07:51:18;31.50;53.40
5617;DHT22;2830;50.656;7.568;2023-06-10T07:53:45;31.90;52.80
5617;DHT22;2830;50.656;7.568;2023-06-10T07:56:12;32.30;52.50
5617;DHT22;2830;50.656;7.568;2023-06-10T07:58:39;33.00;52.20
5617;DHT22;2830;50.656;7.568;2023-06-10T08:01:05;33.30;49.40
5617;DHT22;2830;50.656;7.568;2023-06-10T08:03:33;32.70;50.00
5617;DHT22;2830;50.656;7.568;2023-06-10T08:06:00;32.70;49.70
5617;DHT22;2830;50.656;7.568;2023-06-10T08:08:27;32.90;51.50
5617;DHT22;2830;50.656;7.568;2023-06-10T08:10:54;32.40;50.60
5617;DHT22;2830;50.656;7.568;2023-06-10T08:13:20;32.80;50.30
5617;DHT22;2830;50.656;7.568;2023-06-10T08:15:48;33.30;53.30
5617;DHT22;2830;50.656;7.568;2023-06-10T08:18:17;33.50;49.10
5617;DHT22;2830;50.656;7.568;2023-06-10T08:20:43;33.40;47.90
5617;DHT22;2830;50.656;7.568;2023-06-10T08:23:10;33.50;49.10
5617;DHT22;2830;50.656;7.568;2023-06-10T08:25:37;34.20;48.70
5617;DHT22;2830;50.656;7.568;2023-06-10T08:28:03;34.90;50.00
5617;DHT22;2830;50.656;7.568;2023-06-10T08:30:30;35.60;46.60
5617;DHT22;2830;50.656;7.568;2023-06-10T08:32:57;36.20;46.20
5617;DHT22;2830;50.656;7.568;2023-06-10T08:35:23;36.20;41.30
5617;DHT22;2830;50.656;7.568;2023-06-10T08:37:50;35.60;43.90
5617;DHT22;2830;50.656;7.568;2023-06-10T08:40:17;36.10;44.20
5617;DHT22;2830;50.656;7.568;2023-06-10T08:42:50;36.30;43.10
5617;DHT22;2830;50.656;7.568;2023-06-10T08:45:20;36.40;43.20
5617;DHT22;2830;50.656;7.568;2023-06-10T08:47:50;36.50;42.60
5617;DHT22;2830;50.656;7.568;2023-06-10T08:50:21;36.50;45.40
5617;DHT22;2830;50.656;7.568;2023-06-10T08:52:52;36.30;46.10
5617;DHT22;2830;50.656;7.568;2023-06-10T08:55:31;36.90;44.30
5617;DHT22;2830;50.656;7.568;2023-06-10T08:58:02;37.00;43.70
5617;DHT22;2830;50.656;7.568;2023-06-10T09:00:30;36.80;41.40
5617;DHT22;2830;50.656;7.568;2023-06-10T09:02:57;37.00;42.30
5617;DHT22;2830;50.656;7.568;2023-06-10T09:05:28;37.40;40.30
5617;DHT22;2830;50.656;7.568;2023-06-10T09:07:57;37.70;41.30
5617;DHT22;2830;50.656;7.568;2023-06-10T09:10:24;38.10;41.30
5617;DHT22;2830;50.656;7.568;2023-06-10T09:12:51;37.90;37.80
5617;DHT22;2830;50.656;7.568;2023-06-10T09:15:18;38.10;41.60
5617;DHT22;2830;50.656;7.568;2023-06-10T09:17:45;38.10;37.10
5617;DHT22;2830;50.656;7.568;2023-06-10T09:20:12;37.70;40.20
5617;DHT22;2830;50.656;7.568;2023-06-10T09:22:42;37.80;42.60
5617;DHT22;2830;50.656;7.568;2023-06-10T09:25:10;38.10;40.90
5617;DHT22;2830;50.656;7.568;2023-06-10T09:27:49;38.50;39.30
5617;DHT22;2830;50.656;7.568;2023-06-10T09:30:31;38.90;37.40
5617;DHT22;2830;50.656;7.568;2023-06-10T09:33:03;39.10;39.30
5617;DHT22;2830;50.656;7.568;2023-06-10T09:35:35;38.60;39.70
5617;DHT22;2830;50.656;7.568;2023-06-10T09:38:02;37.60;39.20
5617;DHT22;2830;50.656;7.568;2023-06-10T09:40:29;37.20;37.90
5617;DHT22;2830;50.656;7.568;2023-06-10T09:42:57;36.30;36.60
5617;DHT22;2830;50.656;7.568;2023-06-10T09:45:31;35.10;37.30
5617;DHT22;2830;50.656;7.568;2023-06-10T09:47:58;34.70;39.40
5617;DHT22;2830;50.656;7.568;2023-06-10T09:50:25;34.00;40.80
5617;DHT22;2830;50.656;7.568;2023-06-10T09:52:53;33.90;39.80
5617;DHT22;2830;50.656;7.568;2023-06-10T09:55:20;34.00;35.10
5617;DHT22;2830;50.656;7.568;2023-06-10T09:57:49;33.90;35.60
5617;DHT22;2830;50.656;7.568;2023-06-10T10:00:16;33.30;35.60
5617;DHT22;2830;50.656;7.568;2023-06-10T10:02:51;32.30;38.10
5617;DHT22;2830;50.656;7.568;2023-06-10T10:05:22;31.50;37.30
5617;DHT22;2830;50.656;7.568;2023-06-10T10:07:50;31.60;39.30
5617;DHT22;2830;50.656;7.568;2023-06-10T10:10:19;32.50;39.10
5617;DHT22;2830;50.656;7.568;2023-06-10T10:12:47;33.00;35.70
5617;DHT22;2830;50.656;7.568;2023-06-10T10:15:17;32.70;35.00
5617;DHT22;2830;50.656;7.568;2023-06-10T10:17:48;32.30;36.10
5617;DHT22;2830;50.656;7.568;2023-06-10T10:20:19;32.80;36.30
5617;DHT22;2830;50.656;7.568;2023-06-10T10:22:47;33.80;35.00
5617;DHT22;2830;50.656;7.568;2023-06-10T10:25:18;35.30;35.90
5617;DHT22;2830;50.656;7.568;2023-06-10T10:27:54;36.70;32.40
5617;DHT22;2830;50.656;7.568;2023-06-10T10:30:22;36.50;32.50
5617;DHT22;2830;50.656;7.568;2023-06-10T10:33:05;36.50;30.40
5617;DHT22;2830;50.656;7.568;2023-06-10T10:35:36;36.40;30.30
5617;DHT22;2830;50.656;7.568;2023-06-10T10:38:04;36.50;30.80
5617;DHT22;2830;50.656;7.568;2023-06-10T10:40:32;37.30;30.30
5617;DHT22;2830;50.656;7.568;2023-06-10T10:42:59;37.40;31.90
5617;DHT22;2830;50.656;7.568;2023-06-10T10:45:30;36.90;30.90
5617;DHT22;2830;50.656;7.568;2023-06-10T10:47:56;37.60;30.40
5617;DHT22;2830;50.656;7.568;2023-06-10T10:50:24;37.70;29.00
5617;DHT22;2830;50.656;7.568;2023-06-10T10:52:59;36.30;29.50
5617;DHT22;2830;50.656;7.568;2023-06-10T10:55:27;35.70;31.00
5617;DHT22;2830;50.656;7.568;2023-06-10T10:57:59;36.10;31.80
5617;DHT22;2830;50.656;7.568;2023-06-10T11:03:05;38.10;30.40
5617;DHT22;2830;50.656;7.568;2023-06-10T11:05:42;38.50;28.70
5617;DHT22;2830;50.656;7.568;2023-06-10T11:08:45;38.50;30.20
5617;DHT22;2830;50.656;7.568;2023-06-10T11:11:27;38.50;28.40
5617;DHT22;2830;50.656;7.568;2023-06-10T11:16:43;38.50;28.90
5617;DHT22;2830;50.656;7.568;2023-06-10T11:19:10;38.60;29.40
5617;DHT22;2830;50.656;7.568;2023-06-10T11:21:58;38.50;28.30
5617;DHT22;2830;50.656;7.568;2023-06-10T11:24:28;37.70;28.90
5617;DHT22;2830;50.656;7.568;2023-06-10T11:27:14;38.00;28.60
5617;DHT22;2830;50.656;7.568;2023-06-10T11:32:31;36.80;32.00
5617;DHT22;2830;50.656;7.568;2023-06-10T11:34:59;37.10;29.70
5617;DHT22;2830;50.656;7.568;2023-06-10T11:37:27;37.60;29.90
5617;DHT22;2830;50.656;7.568;2023-06-10T11:39:55;37.50;29.40
5617;DHT22;2830;50.656;7.568;2023-06-10T11:42:22;36.40;30.10
5617;DHT22;2830;50.656;7.568;2023-06-10T11:44:53;35.80;31.80
5617;DHT22;2830;50.656;7.568;2023-06-10T11:47:20;35.20;32.10
5617;DHT22;2830;50.656;7.568;2023-06-10T11:49:57;34.00;32.80
5617;DHT22;2830;50.656;7.568;2023-06-10T11:52:29;34.00;33.70
5617;DHT22;2830;50.656;7.568;2023-06-10T11:54:56;34.60;33.60
5617;DHT22;2830;50.656;7.568;2023-06-10T11:57:23;35.50;32.60
5617;DHT22;2830;50.656;7.568;2023-06-10T11:59:49;35.60;33.00
5617;DHT22;2830;50.656;7.568;2023-06-10T12:02:17;35.00;31.40
5617;DHT22;2830;50.656;7.568;2023-06-10T12:04:44;34.70;33.40
5617;DHT22;2830;50.656;7.568;2023-06-10T12:07:18;35.30;34.60
5617;DHT22;2830;50.656;7.568;2023-06-10T12:09:46;35.30;32.60
5617;DHT22;2830;50.656;7.568;2023-06-10T12:12:12;35.30;32.50
5617;DHT22;2830;50.656;7.568;2023-06-10T12:14:56;34.90;33.50
5617;DHT22;2830;50.656;7.568;2023-06-10T12:17:35;34.70;33.00
5617;DHT22;2830;50.656;7.568;2023-06-10T12:20:25;34.50;32.60
5617;DHT22;2830;50.656;7.568;2023-06-10T12:22:52;34.30;33.10
5617;DHT22;2830;50.656;7.568;2023-06-10T12:25:27;34.60;34.20
5617;DHT22;2830;50.656;7.568;2023-06-10T12:27:56;34.70;35.00
5617;DHT22;2830;50.656;7.568;2023-06-10T12:30:25;34.70;34.10
5617;DHT22;2830;50.656;7.568;2023-06-10T12:32:53;34.90;33.40
5617;DHT22;2830;50.656;7.568;2023-06-10T12:35:22;34.40;32.70
5617;DHT22;2830;50.656;7.568;2023-06-10T12:38:04;33.80;33.70
5617;DHT22;2830;50.656;7.568;2023-06-10T12:40:34;33.60;35.30
5617;DHT22;2830;50.656;7.568;2023-06-10T12:43:03;33.20;35.60
5617;DHT22;2830;50.656;7.568;2023-06-10T12:45:34;33.10;36.20
5617;DHT22;2830;50.656;7.568;2023-06-10T12:48:11;33.30;37.30
5617;DHT22;2830;50.656;7.568;2023-06-10T12:50:40;32.90;35.30
5617;DHT22;2830;50.656;7.568;2023-06-10T12:53:08;32.70;35.50
5617;DHT22;2830;50.656;7.568;2023-06-10T12:55:35;32.90;35.90
5617;DHT22;2830;50.656;7.568;2023-06-10T12:58:02;33.20;36.80
5617;DHT22;2830;50.656;7.568;2023-06-10T13:00:30;33.40;34.20
5617;DHT22;2830;50.656;7.568;2023-06-10T13:02:59;33.70;34.20
5617;DHT22;2830;50.656;7.568;2023-06-10T13:05:27;33.60;35.00
5617;DHT22;2830;50.656;7.568;2023-06-10T13:07:54;32.70;34.50
5617;DHT22;2830;50.656;7.568;2023-06-10T13:10:21;32.40;35.60
5617;DHT22;2830;50.656;7.568;2023-06-10T13:12:52;32.20;35.00
5617;DHT22;2830;50.656;7.568;2023-06-10T13:15:18;32.60;34.30
5617;DHT22;2830;50.656;7.568;2023-06-10T13:17:45;33.00;35.50
5617;DHT22;2830;50.656;7.568;2023-06-10T13:20:16;33.30;34.20
5617;DHT22;2830;50.656;7.568;2023-06-10T13:22:44;33.40;34.00
5617;DHT22;2830;50.656;7.568;2023-06-10T13:25:11;32.70;32.80
5617;DHT22;2830;50.656;7.568;2023-06-10T13:27:39;32.20;33.10
5617;DHT22;2830;50.656;7.568;2023-06-10T13:30:06;32.00;34.80
5617;DHT22;2830;50.656;7.568;2023-06-10T13:32:33;31.90;35.10
5617;DHT22;2830;50.656;7.568;2023-06-10T13:35:00;31.80;35.30
5617;DHT22;2830;50.656;7.568;2023-06-10T13:37:31;31.90;36.30
5617;DHT22;2830;50.656;7.568;2023-06-10T13:39:57;32.10;35.50
5617;DHT22;2830;50.656;7.568;2023-06-10T13:42:24;32.00;36.20
5617;DHT22;2830;50.656;7.568;2023-06-10T13:44:53;31.80;36.50
5617;DHT22;2830;50.656;7.568;2023-06-10T13:47:19;31.70;35.20
5617;DHT22;2830;50.656;7.568;2023-06-10T13:49:47;31.70;34.70
5617;DHT22;2830;50.656;7.568;2023-06-10T13:52:14;31.70;34.20
5617;DHT22;2830;50.656;7.568;2023-06-10T13:54:40;31.60;34.80
5617;DHT22;2830;50.656;7.568;2023-06-10T13:57:07;31.50;35.00
5617;DHT22;2830;50.656;7.568;2023-06-10T13:59:37;31.70;35.90
5617;DHT22;2830;50.656;7.568;2023-06-10T14:02:04;31.20;34.40
5617;DHT22;2830;50.656;7.568;2023-06-10T14:04:31;31.00;35.70
5617;DHT22;2830;50.656;7.568;2023-06-10T14:06:57;30.90;34.10
5617;DHT22;2830;50.656;7.568;2023-06-10T14:09:24;30.70;32.90
5617;DHT22;2830;50.656;7.568;2023-06-10T14:11:51;30.70;34.60
5617;DHT22;2830;50.656;7.568;2023-06-10T14:14:18;30.90;33.90
5617;DHT22;2830;50.656;7.568;2023-06-10T14:16:45;31.00;36.50
5617;DHT22;2830;50.656;7.568;2023-06-10T14:19:12;31.00;37.30
5617;DHT22;2830;50.656;7.568;2023-06-10T14:21:39;31.00;41.10
5617;DHT22;2830;50.656;7.568;2023-06-10T14:24:06;30.90;38.50
5617;DHT22;2830;50.656;7.568;2023-06-10T14:26:33;30.80;39.70
5617;DHT22;2830;50.656;7.568;2023-06-10T14:28:59;30.50;38.30
5617;DHT22;2830;50.656;7.568;2023-06-10T14:31:26;30.30;39.30
5617;DHT22;2830;50.656;7.568;2023-06-10T14:33:53;30.40;39.40
5617;DHT22;2830;50.656;7.568;2023-06-10T14:36:20;30.40;40.50
5617;DHT22;2830;50.656;7.568;2023-06-10T14:38:47;30.40;37.90
5617;DHT22;2830;50.656;7.568;2023-06-10T14:41:13;30.30;36.30
5617;DHT22;2830;50.656;7.568;2023-06-10T14:43:40;30.30;35.80
5617;DHT22;2830;50.656;7.568;2023-06-10T14:46:07;30.20;36.30
5617;DHT22;2830;50.656;7.568;2023-06-10T14:48:34;30.10;37.30
5617;DHT22;2830;50.656;7.568;2023-06-10T14:51:01;30.10;37.20
5617;DHT22;2830;50.656;7.568;2023-06-10T14:53:27;30.10;39.00
5617;DHT22;2830;50.656;7.568;2023-06-10T14:55:54;30.10;39.50
5617;DHT22;2830;50.656;7.568;2023-06-10T14:58:21;30.10;37.80
5617;DHT22;2830;50.656;7.568;2023-06-10T15:00:48;30.10;39.60
5617;DHT22;2830;50.656;7.568;2023-06-10T15:03:15;30.00;37.80
5617;DHT22;2830;50.656;7.568;2023-06-10T15:05:41;29.80;38.80
5617;DHT22;2830;50.656;7.568;2023-06-10T15:08:08;29.70;39.20
5617;DHT22;2830;50.656;7.568;2023-06-10T15:10:35;29.60;38.00
5617;DHT22;2830;50.656;7.568;2023-06-10T15:13:01;29.50;37.30
5617;DHT22;2830;50.656;7.568;2023-06-10T15:15:28;29.50;39.00
5617;DHT22;2830;50.656;7.568;2023-06-10T15:17:55;29.50;38.60
5617;DHT22;2830;50.656;7.568;2023-06-10T15:20:22;29.50;38.60
5617;DHT22;2830;50.656;7.568;2023-06-10T15:22:49;29.60;39.50
5617;DHT22;2830;50.656;7.568;2023-06-10T15:25:16;29.70;39.40
5617;DHT22;2830;50.656;7.568;2023-06-10T15:27:55;29.60;39.60
5617;DHT22;2830;50.656;7.568;2023-06-10T15:30:22;29.50;39.30
5617;DHT22;2830;50.656;7.568;2023-06-10T15:32:49;29.40;39.60
5617;DHT22;2830;50.656;7.568;2023-06-10T15:35:16;29.50;40.40
5617;DHT22;2830;50.656;7.568;2023-06-10T15:37:43;29.50;40.10
5617;DHT22;2830;50.656;7.568;2023-06-10T15:40:10;29.40;40.40
5617;DHT22;2830;50.656;7.568;2023-06-10T15:42:36;29.40;40.30
5617;DHT22;2830;50.656;7.568;2023-06-10T15:45:03;29.40;40.80
5617;DHT22;2830;50.656;7.568;2023-06-10T15:47:30;29.30;41.50
5617;DHT22;2830;50.656;7.568;2023-06-10T15:49:57;29.40;41.50
5617;DHT22;2830;50.656;7.568;2023-06-10T15:52:24;29.30;40.30
5617;DHT22;2830;50.656;7.568;2023-06-10T15:54:51;29.20;40.50
5617;DHT22;2830;50.656;7.568;2023-06-10T15:57:17;29.20;42.00
5617;DHT22;2830;50.656;7.568;2023-06-10T15:59:45;29.30;41.90
5617;DHT22;2830;50.656;7.568;2023-06-10T16:02:12;29.20;42.00
5617;DHT22;2830;50.656;7.568;2023-06-10T16:04:39;29.20;42.90
5617;DHT22;2830;50.656;7.568;2023-06-10T16:07:05;29.20;41.40
5617;DHT22;2830;50.656;7.568;2023-06-10T16:09:32;29.20;42.70
5617;DHT22;2830;50.656;7.568;2023-06-10T16:11:59;29.20;40.30
5617;DHT22;2830;50.656;7.568;2023-06-10T16:14:25;29.00;40.70
5617;DHT22;2830;50.656;7.568;2023-06-10T16:16:52;28.90;41.30
5617;DHT22;2830;50.656;7.568;2023-06-10T16:19:19;28.90;41.80